Pays
Station

 

Conditions  météo  pour  San Diego, Brown Field Municipal Airport  -  Etats-Unis    Etats-Unis

  
9 °C
    
 
 

METAR pour San Diego, Brown Field Municipal Airport :

KSDM 191110Z AUTO 13005KT 4SM BR CLR 09/08 A3014 RMK AO2 T00890078

 

Voici le bulletin pour San Diego, Brown Field Municipal Airport - Etats-Unis.
 
Le bulletin a été fait il y a 16 minutes, à 11:10 UTC .
Le vent soufflait à la vitesse de 2.6 mètres par seconde de Sud-est (130°).
 
La température était de 9 °C, avec un point de rosée à 8 °C.
La pression atmosphérique était de 1021 hPa.
L'humidité relative était de 93.4%.
 
Le ciel était clair.
 
La visibilité globale était de 6.4 kilomètres.
 
Actuellement brume.

 
 
 

Pays :   A   B   C   D   E   F   G   H   I   J   K   L   M   N   O   P   Q   R   S   T   U   V   W   Y   Z

 

Partenaires :  Info Météo avec Met'info
Météo Marine avec MeteoMarine.net
Infos Site  |  Infos Légales  |  Crédits  |  Confidentialité
Contactez-nous  |  Ajouter aux favoris
© 2013-2018 METAR - Tous droits réservés